createdAt,value
2019-03-05T00:02:14.487Z,68.90
2019-03-05T00:04:53.028Z,69.80
2019-03-05T00:07:34.422Z,68.90
2019-03-05T00:10:14.153Z,69.00
2019-03-05T00:12:57.232Z,67.90
2019-03-05T00:15:40.925Z,67.00
2019-03-05T00:18:19.920Z,67.70
2019-03-05T00:21:02.604Z,69.50
2019-03-05T00:24:19.595Z,68.50
2019-03-05T00:27:03.789Z,68.00
2019-03-05T00:30:15.575Z,67.90
2019-03-05T00:33:00.509Z,73.10
2019-03-05T00:36:06.940Z,71.10
2019-03-05T00:39:17.643Z,70.20
2019-03-05T00:42:37.355Z,75.50
2019-03-05T00:45:41.435Z,71.10
2019-03-05T00:48:50.903Z,72.70
2019-03-05T00:51:56.013Z,70.70
2019-03-05T00:54:52.768Z,75.40
2019-03-05T00:57:44.938Z,70.50
2019-03-05T01:00:50.343Z,71.30
2019-03-05T01:04:14.813Z,70.20
2019-03-05T01:07:02.861Z,74.40
2019-03-05T01:09:43.582Z,70.30
2019-03-05T01:12:29.148Z,70.30
2019-03-05T01:15:11.073Z,70.20
2019-03-05T01:17:50.251Z,70.50
2019-03-05T01:20:34.224Z,68.90
2019-03-05T01:23:30.202Z,70.70
2019-03-05T01:26:17.915Z,69.00
2019-03-05T01:29:04.340Z,67.60
2019-03-05T01:32:02.235Z,67.10
2019-03-05T01:35:11.106Z,72.90
2019-03-05T01:37:51.820Z,68.20
2019-03-05T01:40:40.485Z,67.40
2019-03-05T01:43:18.990Z,67.50
2019-03-05T01:46:01.541Z,67.40
2019-03-05T01:48:41.835Z,67.80
2019-03-05T01:51:24.208Z,67.90
2019-03-05T01:54:11.336Z,69.80
2019-03-05T01:56:51.478Z,68.40
2019-03-05T01:59:32.722Z,68.10
2019-03-05T02:02:14.387Z,67.90
2019-03-05T02:04:57.031Z,66.80
2019-03-05T02:07:43.413Z,66.50
2019-03-05T02:10:27.878Z,66.60
2019-03-05T02:13:12.151Z,66.60
2019-03-05T02:15:57.173Z,66.70
2019-03-05T02:18:36.393Z,66.60
2019-03-05T02:21:14.297Z,66.40
2019-03-05T02:24:25.102Z,65.80
2019-03-05T02:28:00.044Z,66.10
2019-03-05T02:31:00.261Z,66.20
2019-03-05T02:33:59.950Z,70.00
2019-03-05T02:37:20.237Z,68.70
2019-03-05T02:40:39.438Z,72.30
2019-03-05T02:44:04.785Z,71.30
2019-03-05T02:47:01.194Z,65.40
2019-03-05T02:50:19.803Z,65.50
2019-03-05T02:53:48.245Z,64.80
2019-03-05T02:56:50.290Z,63.50
2019-03-05T02:59:32.061Z,63.30
2019-03-05T03:02:41.892Z,62.40
2019-03-05T03:05:42.899Z,61.80
2019-03-05T03:08:22.712Z,65.80
2019-03-05T03:11:04.513Z,71.40
2019-03-05T03:13:49.101Z,68.60
2019-03-05T03:16:32.612Z,66.00
2019-03-05T03:19:14.547Z,63.40
2019-03-05T03:21:56.262Z,65.50
2019-03-05T03:24:39.668Z,62.60
2019-03-05T03:27:22.928Z,62.70
2019-03-05T03:30:06.005Z,64.20
2019-03-05T03:32:47.986Z,62.10
2019-03-05T03:35:32.558Z,63.80
2019-03-05T03:38:20.842Z,62.40
2019-03-05T03:41:05.606Z,58.80
2019-03-05T03:43:44.728Z,59.40
2019-03-05T03:46:30.155Z,57.50
2019-03-05T03:49:09.030Z,56.30
2019-03-05T03:51:54.953Z,56.40
2019-03-05T03:54:39.477Z,58.90
2019-03-05T03:57:17.221Z,60.50
2019-03-05T03:59:59.813Z,59.00
2019-03-05T04:02:42.096Z,59.00
2019-03-05T04:05:28.346Z,58.10
2019-03-05T04:08:15.428Z,57.00
2019-03-05T04:10:59.121Z,55.70
2019-03-05T04:13:41.866Z,57.70
2019-03-05T04:16:28.922Z,57.40
2019-03-05T04:19:13.163Z,56.70
2019-03-05T04:21:58.212Z,58.10
2019-03-05T04:24:40.029Z,56.00
2019-03-05T04:27:25.597Z,56.60
2019-03-05T04:30:16.363Z,56.80
2019-03-05T04:32:57.905Z,56.10
2019-03-05T04:35:49.639Z,54.80
2019-03-05T04:38:33.198Z,54.50
2019-03-05T04:41:16.693Z,55.50
2019-03-05T04:43:59.979Z,55.20
2019-03-05T04:46:54.227Z,52.70
2019-03-05T04:49:59.295Z,53.20
2019-03-05T04:53:03.165Z,52.40
2019-03-05T04:56:15.883Z,52.70
2019-03-05T04:59:04.147Z,52.30
2019-03-05T05:01:54.374Z,51.20
2019-03-05T05:04:40.786Z,51.40
2019-03-05T05:07:40.070Z,52.80
2019-03-05T05:10:32.252Z,52.90
2019-03-05T05:13:20.279Z,52.10
2019-03-05T05:16:07.781Z,52.00
2019-03-05T05:19:06.946Z,51.60
2019-03-05T05:21:57.384Z,51.00
2019-03-05T05:24:49.126Z,50.40
2019-03-05T05:27:35.895Z,51.50
2019-03-05T05:30:44.262Z,51.50
2019-03-05T05:33:32.129Z,50.10
2019-03-05T05:36:13.906Z,50.80
2019-03-05T05:39:09.350Z,50.80
2019-03-05T05:41:50.586Z,54.10
2019-03-05T05:44:36.734Z,54.90
2019-03-05T05:47:23.048Z,52.50
2019-03-05T05:50:04.310Z,52.40
2019-03-05T05:52:49.105Z,53.70
2019-03-05T05:55:42.474Z,51.50
2019-03-05T05:58:23.864Z,51.90
2019-03-05T06:01:12.877Z,52.60
2019-03-05T06:04:00.727Z,51.20
2019-03-05T06:06:43.157Z,52.20
2019-03-05T06:09:24.793Z,50.10
2019-03-05T06:12:11.946Z,49.50
2019-03-05T06:14:54.394Z,51.40
2019-03-05T06:17:36.070Z,51.40
2019-03-05T06:20:28.282Z,50.90
2019-03-05T06:23:33.631Z,49.60
2019-03-05T06:26:24.797Z,49.70
2019-03-05T06:29:09.507Z,48.80
2019-03-05T06:31:53.065Z,49.70
2019-03-05T06:34:44.415Z,49.30
2019-03-05T06:37:46.496Z,49.20
2019-03-05T06:40:33.486Z,48.00
2019-03-05T06:43:19.849Z,49.60
2019-03-05T06:46:03.513Z,48.20
2019-03-05T06:48:45.111Z,47.80
2019-03-05T06:51:54.405Z,48.90
2019-03-05T06:54:37.514Z,49.20
2019-03-05T06:57:28.916Z,49.20
2019-03-05T07:00:16.704Z,47.50
2019-03-05T07:03:04.628Z,47.40
2019-03-05T07:06:24.064Z,46.80
2019-03-05T07:09:12.519Z,47.00
2019-03-05T07:12:29.946Z,46.00
2019-03-05T07:15:40.779Z,45.20
2019-03-05T07:18:27.475Z,45.10
2019-03-05T07:21:53.259Z,45.10
2019-03-05T07:24:53.257Z,44.20
2019-03-05T07:27:51.722Z,44.70
2019-03-05T07:30:43.402Z,44.20
2019-03-05T07:33:56.160Z,45.40
2019-03-05T07:37:18.330Z,44.40
2019-03-05T07:40:04.223Z,44.00
2019-03-05T07:43:07.464Z,46.10
2019-03-05T07:45:56.011Z,45.10
2019-03-05T07:48:52.541Z,44.70
2019-03-05T07:51:41.052Z,45.00
2019-03-05T07:54:21.473Z,44.30
2019-03-05T07:57:07.570Z,43.80
2019-03-05T07:59:50.729Z,44.40
2019-03-05T08:02:35.587Z,44.20
2019-03-05T08:05:21.421Z,44.90
2019-03-05T08:08:26.626Z,43.30
2019-03-05T08:11:13.255Z,44.10
2019-03-05T08:14:31.775Z,44.80
2019-03-05T08:17:17.123Z,45.00
2019-03-05T08:20:04.162Z,45.00
2019-03-05T08:22:58.952Z,44.80
2019-03-05T08:25:42.198Z,44.60
2019-03-05T08:28:27.401Z,44.50
2019-03-05T08:31:22.817Z,44.70
2019-03-05T08:34:09.120Z,45.10
2019-03-05T08:36:49.665Z,44.70
2019-03-05T08:39:33.318Z,45.00
2019-03-05T08:42:19.256Z,42.20
2019-03-05T08:45:03.681Z,44.60
2019-03-05T08:47:47.623Z,42.80
2019-03-05T08:50:26.406Z,42.70
2019-03-05T08:53:08.790Z,43.20
2019-03-05T08:55:52.571Z,43.40
2019-03-05T08:58:33.754Z,43.40
2019-03-05T09:01:19.317Z,43.10
2019-03-05T09:07:26.015Z,42.70
2019-03-05T09:10:11.647Z,42.20
2019-03-05T09:12:53.453Z,43.00
2019-03-05T09:15:35.023Z,42.40
2019-03-05T09:18:17.509Z,42.20
2019-03-05T09:20:58.125Z,43.30
2019-03-05T09:23:41.063Z,43.10
2019-03-05T09:26:26.488Z,42.90
2019-03-05T09:29:11.178Z,43.00
2019-03-05T09:32:03.832Z,43.00
2019-03-05T09:34:50.917Z,43.20
2019-03-05T09:37:32.572Z,43.50
2019-03-05T09:40:14.777Z,43.00
2019-03-05T09:42:59.368Z,43.40
2019-03-05T09:45:39.807Z,43.30
2019-03-05T09:48:30.439Z,43.30
2019-03-05T09:51:10.635Z,43.30
2019-03-05T09:53:51.777Z,43.50
2019-03-05T09:56:30.984Z,43.40
2019-03-05T09:59:10.895Z,43.80
2019-03-05T10:01:55.091Z,44.90
2019-03-05T10:04:39.769Z,45.10
2019-03-05T10:07:22.462Z,44.30
2019-03-05T10:10:15.350Z,45.00
2019-03-05T10:12:58.813Z,45.20
2019-03-05T10:15:35.633Z,45.10
2019-03-05T10:18:18.358Z,45.70
2019-03-05T10:21:06.534Z,45.70
2019-03-05T10:23:46.087Z,46.50
2019-03-05T10:26:28.870Z,47.00
2019-03-05T10:29:10.649Z,46.80
2019-03-05T10:31:52.996Z,46.30
2019-03-05T10:34:45.187Z,46.20
2019-03-05T10:37:25.399Z,46.40
2019-03-05T10:40:08.065Z,48.30
2019-03-05T10:42:47.144Z,48.80
2019-03-05T10:45:28.677Z,48.50
2019-03-05T10:48:25.281Z,48.80
2019-03-05T10:51:15.321Z,48.80
2019-03-05T10:54:02.118Z,49.40
2019-03-05T10:56:41.656Z,48.90
2019-03-05T10:59:32.711Z,49.00
2019-03-05T11:02:25.732Z,49.30
2019-03-05T11:05:21.742Z,49.10
2019-03-05T11:08:18.013Z,49.40
2019-03-05T11:11:13.086Z,50.20
2019-03-05T11:13:48.265Z,50.10
2019-03-05T11:16:35.362Z,48.90
2019-03-05T11:19:36.601Z,49.00
2019-03-05T11:22:45.892Z,49.70
2019-03-05T11:25:34.729Z,50.80
2019-03-05T11:28:14.798Z,49.30
2019-03-05T11:30:55.668Z,49.80
2019-03-05T11:33:45.071Z,48.10
2019-03-05T11:36:26.725Z,46.70
2019-03-05T11:39:20.081Z,47.00
2019-03-05T11:42:06.109Z,47.40
2019-03-05T11:45:48.973Z,47.80
2019-03-05T11:47:50.518Z,48.40
2019-03-05T11:50:39.414Z,48.40
2019-03-05T11:54:06.605Z,49.00
2019-03-05T11:57:03.674Z,49.80
2019-03-05T11:59:54.923Z,50.00
2019-03-05T12:02:52.175Z,52.00
2019-03-05T12:05:58.272Z,51.70
2019-03-05T12:08:55.964Z,51.00
2019-03-05T12:11:57.033Z,51.40
2019-03-05T12:14:55.644Z,51.10
2019-03-05T12:17:59.036Z,51.80
2019-03-05T12:21:17.585Z,51.10
2019-03-05T12:24:24.227Z,51.60
2019-03-05T12:27:14.376Z,52.10
2019-03-05T12:30:33.824Z,53.10
2019-03-05T12:33:30.025Z,54.50
2019-03-05T12:36:40.611Z,53.90
2019-03-05T12:40:04.263Z,54.10
2019-03-05T12:43:15.071Z,54.50
2019-03-05T12:46:12.153Z,52.50
2019-03-05T12:49:36.303Z,52.40
2019-03-05T12:52:56.627Z,52.30
2019-03-05T12:56:24.255Z,52.80
2019-03-05T12:59:34.477Z,51.90
2019-03-05T13:02:50.783Z,52.10
2019-03-05T13:05:59.786Z,52.10
2019-03-05T13:09:09.607Z,52.00
2019-03-05T13:12:40.035Z,51.70
2019-03-05T13:19:15.714Z,52.00
2019-03-05T13:22:59.560Z,52.20
2019-03-05T13:26:10.315Z,52.00
2019-03-05T13:29:31.284Z,51.90
2019-03-05T13:32:29.080Z,52.20
2019-03-05T13:35:50.184Z,52.30
2019-03-05T13:39:11.489Z,52.40
2019-03-05T13:42:17.996Z,52.40
2019-03-05T13:45:08.840Z,52.50
2019-03-05T13:48:33.763Z,52.60
2019-03-05T13:51:59.842Z,53.00
2019-03-05T13:55:37.049Z,53.00
2019-03-05T13:58:45.810Z,52.90
2019-03-05T14:01:58.869Z,53.20
2019-03-05T14:05:43.907Z,53.20
2019-03-05T14:08:59.627Z,53.10
2019-03-05T14:12:17.599Z,53.60
2019-03-05T14:15:21.565Z,54.00
2019-03-05T14:18:31.369Z,54.30
2019-03-05T14:22:09.116Z,54.50
2019-03-05T14:25:10.178Z,54.70
2019-03-05T14:28:24.676Z,55.70
2019-03-05T14:39:33.109Z,58.40
2019-03-05T14:43:05.784Z,59.20
2019-03-05T14:46:33.604Z,60.00
2019-03-05T14:50:09.626Z,60.60
2019-03-05T14:53:29.133Z,61.20
2019-03-05T14:56:46.256Z,61.90
2019-03-05T15:00:20.092Z,62.30
2019-03-05T15:03:18.826Z,62.80
2019-03-05T15:06:26.249Z,61.80
2019-03-05T15:10:02.894Z,61.90
2019-03-05T15:13:27.457Z,61.80
2019-03-05T15:16:58.295Z,62.60
2019-03-05T15:20:21.535Z,64.10
2019-03-05T15:23:33.642Z,63.30
2019-03-05T15:26:59.266Z,63.40
2019-03-05T15:30:11.331Z,62.80
2019-03-05T15:33:21.267Z,62.30
2019-03-05T15:36:30.879Z,61.30
2019-03-05T15:39:33.201Z,60.40
2019-03-05T15:43:05.615Z,59.50
2019-03-05T15:46:14.498Z,59.60
2019-03-05T15:49:43.889Z,59.40
2019-03-05T15:52:49.028Z,59.90
2019-03-05T15:56:05.496Z,60.10
2019-03-05T15:59:27.848Z,60.50
2019-03-05T16:02:41.193Z,60.90
2019-03-05T16:05:29.196Z,61.80
2019-03-05T16:09:07.443Z,62.20
2019-03-05T16:11:48.864Z,62.70
2019-03-05T16:15:24.095Z,62.90
2019-03-05T16:18:14.973Z,62.80
2019-03-05T16:21:16.082Z,63.70
2019-03-05T16:24:17.323Z,63.90
2019-03-05T16:27:25.499Z,64.80
2019-03-05T16:30:17.592Z,63.70
2019-03-05T16:33:45.703Z,65.10
2019-03-05T16:37:21.134Z,66.40
2019-03-05T16:40:41.021Z,67.40
2019-03-05T16:43:40.612Z,66.50
2019-03-05T16:46:34.053Z,67.40
2019-03-05T16:49:32.906Z,66.00
2019-03-05T16:52:50.949Z,65.30
2019-03-05T16:55:51.753Z,63.60
2019-03-05T16:58:58.535Z,64.00
2019-03-05T17:02:04.850Z,64.30
2019-03-05T17:05:35.616Z,64.00
2019-03-05T17:08:52.349Z,63.50
2019-03-05T17:11:57.735Z,63.50
2019-03-05T17:14:49.709Z,63.50
2019-03-05T17:17:37.808Z,63.40
2019-03-05T17:20:16.772Z,62.70
2019-03-05T17:22:57.868Z,62.70
2019-03-05T17:25:41.333Z,63.10
2019-03-05T17:28:31.866Z,63.50
2019-03-05T17:31:13.195Z,63.30
2019-03-05T17:33:56.695Z,63.50
2019-03-05T17:36:39.484Z,64.00
2019-03-05T17:39:24.194Z,64.90
2019-03-05T17:42:09.026Z,65.30
2019-03-05T17:45:00.551Z,65.10
2019-03-05T17:47:39.921Z,65.80
2019-03-05T17:50:28.887Z,65.90
2019-03-05T17:53:13.147Z,65.80
2019-03-05T17:55:59.687Z,65.70
2019-03-05T17:58:42.199Z,66.10
2019-03-05T18:01:23.061Z,65.30
2019-03-05T18:04:10.941Z,65.50
2019-03-05T18:06:54.679Z,64.80
2019-03-05T18:09:43.208Z,64.00
2019-03-05T18:12:28.393Z,63.50
2019-03-05T18:15:10.659Z,63.70
2019-03-05T18:17:53.446Z,64.20
2019-03-05T18:20:32.841Z,64.40
2019-03-05T18:23:18.304Z,64.50
2019-03-05T18:26:00.721Z,64.40
2019-03-05T18:28:58.203Z,64.60
2019-03-05T18:31:44.467Z,64.80
2019-03-05T18:34:31.209Z,64.80
2019-03-05T18:37:14.790Z,65.10
2019-03-05T18:40:05.184Z,64.80
2019-03-05T18:42:50.602Z,64.60
2019-03-05T18:45:32.855Z,64.00
2019-03-05T18:48:14.581Z,64.00
2019-03-05T18:51:06.479Z,63.50
2019-03-05T18:53:49.974Z,63.70
2019-03-05T18:56:34.432Z,63.50
2019-03-05T18:59:15.047Z,63.80
2019-03-05T19:01:54.266Z,64.00
2019-03-05T19:04:41.055Z,64.20
2019-03-05T19:07:24.495Z,64.40
2019-03-05T19:10:04.161Z,64.60
2019-03-05T19:12:47.200Z,64.80
2019-03-05T19:15:28.884Z,65.00
2019-03-05T19:18:09.858Z,65.00
2019-03-05T19:20:53.440Z,65.30
2019-03-05T19:23:36.179Z,64.40
2019-03-05T19:26:16.898Z,64.20
2019-03-05T19:28:58.402Z,63.70
2019-03-05T19:31:41.532Z,63.70
2019-03-05T19:34:23.617Z,63.70
2019-03-05T19:37:06.948Z,64.20
2019-03-05T19:39:46.260Z,64.30
2019-03-05T19:42:27.820Z,64.40
2019-03-05T19:45:10.243Z,64.60
2019-03-05T19:47:52.381Z,64.50
2019-03-05T19:50:32.600Z,64.60
2019-03-05T19:53:14.091Z,64.20
2019-03-05T19:56:05.186Z,64.50
2019-03-05T19:58:50.991Z,64.20
2019-03-05T20:01:39.708Z,64.40
2019-03-05T20:04:24.185Z,63.90
2019-03-05T20:07:05.413Z,63.30
2019-03-05T20:09:44.887Z,63.50
2019-03-05T20:12:27.792Z,63.60
2019-03-05T20:15:07.193Z,63.80
2019-03-05T20:17:47.337Z,63.90
2019-03-05T20:20:27.657Z,63.80
2019-03-05T20:23:07.279Z,63.80
2019-03-05T20:25:49.969Z,63.60
2019-03-05T20:28:39.771Z,63.20
2019-03-05T20:31:22.319Z,63.20
2019-03-05T20:34:04.084Z,63.30
2019-03-05T20:36:43.533Z,63.40
2019-03-05T20:39:26.813Z,63.40
2019-03-05T20:42:09.807Z,63.40
2019-03-05T20:44:53.325Z,62.90
2019-03-05T20:47:31.085Z,62.40
2019-03-05T20:50:13.418Z,62.30
2019-03-05T20:52:53.436Z,61.60
2019-03-05T20:55:33.909Z,61.90
2019-03-05T20:58:18.518Z,62.10
2019-03-05T21:01:02.976Z,62.30
2019-03-05T21:03:43.975Z,62.40
2019-03-05T21:06:24.679Z,62.30
2019-03-05T21:09:05.470Z,62.60
2019-03-05T21:11:45.311Z,62.60
2019-03-05T21:14:26.497Z,62.60
2019-03-05T21:17:11.392Z,62.90
2019-03-05T21:19:53.296Z,62.70
2019-03-05T21:22:33.940Z,62.80
2019-03-05T21:25:13.924Z,62.60
2019-03-05T21:27:51.800Z,62.30
2019-03-05T21:30:31.678Z,62.40
2019-03-05T21:33:11.262Z,62.20
2019-03-05T21:35:50.238Z,62.40
2019-03-05T21:38:33.839Z,62.20
2019-03-05T21:41:20.377Z,62.20
2019-03-05T21:44:03.864Z,62.00
2019-03-05T21:46:44.790Z,61.90
2019-03-05T21:49:28.712Z,61.80
2019-03-05T21:52:11.159Z,62.20
2019-03-05T21:54:52.659Z,61.80
2019-03-05T21:57:36.373Z,61.80
2019-03-05T22:00:24.128Z,62.20
2019-03-05T22:03:06.176Z,62.20
2019-03-05T22:05:48.700Z,62.40
2019-03-05T22:08:28.998Z,62.70
2019-03-05T22:11:15.195Z,62.30
2019-03-05T22:13:56.971Z,62.10
2019-03-05T22:16:39.173Z,61.60
2019-03-05T22:19:22.331Z,61.80
2019-03-05T22:22:06.297Z,61.90
2019-03-05T22:24:45.623Z,62.30
2019-03-05T22:27:28.236Z,62.60
2019-03-05T22:30:10.755Z,62.30
2019-03-05T22:32:53.440Z,62.30
2019-03-05T22:35:36.090Z,62.50
2019-03-05T22:38:16.156Z,62.60
2019-03-05T22:40:58.538Z,62.70
2019-03-05T22:43:40.871Z,62.80
2019-03-05T22:46:21.305Z,63.40
2019-03-05T22:49:04.043Z,63.30
2019-03-05T22:51:45.782Z,63.30
2019-03-05T22:54:28.501Z,63.80
2019-03-05T22:57:11.860Z,64.20
2019-03-05T22:59:59.920Z,64.50
2019-03-05T23:02:44.371Z,65.20
2019-03-05T23:05:24.233Z,65.90
2019-03-05T23:08:05.370Z,66.20
2019-03-05T23:10:48.631Z,66.40
2019-03-05T23:13:29.577Z,66.70
2019-03-05T23:16:10.200Z,66.70
2019-03-05T23:18:51.060Z,66.80
2019-03-05T23:21:35.136Z,66.30
2019-03-05T23:24:14.239Z,65.70
2019-03-05T23:26:58.836Z,66.10
2019-03-05T23:29:47.301Z,66.40
2019-03-05T23:32:29.582Z,67.50
2019-03-05T23:35:09.862Z,67.90
2019-03-05T23:37:54.498Z,66.80
2019-03-05T23:40:41.788Z,69.90
2019-03-05T23:43:20.086Z,67.50
2019-03-05T23:46:03.887Z,67.80
2019-03-05T23:48:49.751Z,65.80
2019-03-05T23:51:30.789Z,67.10
2019-03-05T23:54:12.230Z,66.50
2019-03-05T23:56:54.969Z,66.30
2019-03-05T23:59:35.261Z,66.20
